Time;durP1;ratioP1;P1;durP2;ratioP2;P2;SDS_P1;SDS_P2;PMS_P1;PMS_P2;Temp;Humidity;BMP_temperature;BMP_pressure;BME280_temperature;BME280_humidity;BME280_pressure;Samples;Min_cycle;Max_cycle;Signal;HPM_P1;HPM_P2
2023/06/19 00:03:05;;;;;;;7.90;3.80;;;;;19.20;100421.00;;;;10227301;28;20212;-78
2023/06/19 00:08:07;;;;;;;4.82;3.28;;;;;19.20;100431.00;;;;10231177;28;20202;-77
2023/06/19 00:13:09;;;;;;;3.95;3.47;;;;;19.20;100437.00;;;;10242381;28;20213;-77
2023/06/19 00:18:12;;;;;;;6.78;3.80;;;;;19.20;100441.00;;;;10235279;28;20221;-75
2023/06/19 00:23:16;;;;;;;7.55;3.47;;;;;19.30;100453.00;;;;10246337;28;20221;-79
2023/06/19 00:28:21;;;;;;;6.82;3.78;;;;;19.40;100445.00;;;;10229530;28;20209;-76
2023/06/19 00:33:23;;;;;;;5.22;3.33;;;;;19.50;100452.00;;;;10244709;28;20624;-76
2023/06/19 00:38:27;;;;;;;14.73;3.70;;;;;19.40;100462.00;;;;10243831;28;20212;-76
2023/06/19 00:43:29;;;;;;;3.53;2.95;;;;;19.30;100463.00;;;;10235022;28;20205;-75
2023/06/19 00:48:33;;;;;;;4.28;3.30;;;;;19.20;100462.00;;;;10226202;28;20545;-76
2023/06/19 00:53:36;;;;;;;4.95;3.30;;;;;19.10;100461.00;;;;10221134;28;20803;-77
2023/06/19 00:58:39;;;;;;;3.60;2.85;;;;;19.00;100461.00;;;;10232701;28;20205;-76
2023/06/19 01:03:41;;;;;;;4.00;2.80;;;;;18.90;100452.00;;;;10229540;28;20228;-77
2023/06/19 01:08:58;;;;;;;3.38;2.75;;;;;18.80;100458.00;;;;10266781;28;20566;-82
2023/06/19 01:14:08;;;;;;;4.45;2.92;;;;;18.70;100455.00;;;;10246849;28;20696;-79
2023/06/19 01:19:15;;;;;;;4.57;3.03;;;;;18.70;100464.00;;;;10234406;28;20209;-76
2023/06/19 01:24:17;;;;;;;6.40;3.35;;;;;18.80;100477.00;;;;10227627;28;20209;-80
2023/06/19 01:29:20;;;;;;;3.00;2.72;;;;;18.90;100465.00;;;;10234807;28;20206;-80
2023/06/19 01:34:24;;;;;;;4.13;2.83;;;;;19.00;100480.00;;;;10241964;28;20218;-76
2023/06/19 01:39:28;;;;;;;3.47;3.17;;;;;19.00;100493.00;;;;10221028;28;20196;-79
2023/06/19 01:44:30;;;;;;;4.85;3.00;;;;;19.10;100499.00;;;;10245140;28;20209;-76
2023/06/19 01:49:33;;;;;;;4.78;3.10;;;;;19.20;100502.00;;;;10252665;28;20198;-75
2023/06/19 01:54:38;;;;;;;4.97;3.42;;;;;19.30;100505.00;;;;10253241;28;20276;-75
2023/06/19 01:59:40;;;;;;;5.25;3.30;;;;;19.30;100510.00;;;;10242463;28;20209;-76
2023/06/19 02:04:42;;;;;;;4.13;3.05;;;;;19.30;100520.00;;;;10248846;28;20284;-77
2023/06/19 02:09:44;;;;;;;5.93;4.43;;;;;19.40;100520.00;;;;10245555;28;20269;-86
2023/06/19 02:14:46;;;;;;;7.05;3.22;;;;;19.40;100527.00;;;;10247284;28;20272;-77
2023/06/19 02:19:48;;;;;;;4.70;3.30;;;;;19.40;100520.00;;;;10224369;28;20213;-77
2023/06/19 02:24:52;;;;;;;4.95;3.80;;;;;19.40;100535.00;;;;10266092;28;20227;-83
2023/06/19 02:29:54;;;;;;;6.25;3.53;;;;;19.40;100531.00;;;;10226898;28;20224;-79
2023/06/19 02:34:57;;;;;;;4.90;4.18;;;;;19.40;100540.00;;;;10230900;28;20666;-76
2023/06/19 02:39:59;;;;;;;4.43;3.50;;;;;19.30;100546.00;;;;10250777;28;20213;-74
2023/06/19 02:45:04;;;;;;;5.75;3.78;;;;;19.30;100548.00;;;;10248674;28;20201;-74
2023/06/19 02:50:09;;;;;;;4.38;3.47;;;;;19.30;100555.00;;;;10249355;28;20235;-75
2023/06/19 02:55:11;;;;;;;9.80;4.60;;;;;19.40;100554.00;;;;10236358;28;20289;-74
2023/06/19 03:00:14;;;;;;;6.28;4.47;;;;;19.40;100555.00;;;;10235602;28;20209;-74
2023/06/19 03:05:17;;;;;;;5.38;3.53;;;;;19.50;100557.00;;;;10233795;28;20229;-75
2023/06/19 03:10:19;;;;;;;6.78;4.15;;;;;19.50;100564.00;;;;10227735;28;20711;-76
2023/06/19 03:15:22;;;;;;;8.77;4.72;;;;;19.50;100569.00;;;;10220657;28;20570;-82
2023/06/19 03:20:25;;;;;;;6.85;4.57;;;;;19.50;100574.00;;;;10258269;28;20620;-76
2023/06/19 03:25:34;;;;;;;8.70;6.32;;;;;19.60;100570.00;;;;10240064;28;20604;-80
2023/06/19 03:30:37;;;;;;;8.10;6.60;;;;;19.60;100590.00;;;;10230991;28;20284;-80
2023/06/19 03:35:40;;;;;;;9.30;6.93;;;;;19.60;100586.00;;;;10222391;28;20226;-78
2023/06/19 03:40:48;;;;;;;10.32;6.43;;;;;19.50;100605.00;;;;10204628;28;20624;-77
2023/06/19 03:45:50;;;;;;;8.90;5.38;;;;;19.50;100603.00;;;;10227676;28;20213;-77
2023/06/19 03:50:53;;;;;;;6.15;4.70;;;;;19.50;100621.00;;;;10245324;28;20223;-77
2023/06/19 03:55:56;;;;;;;7.95;4.65;;;;;19.40;100617.00;;;;10222427;28;20232;-77
2023/06/19 04:00:58;;;;;;;13.73;5.30;;;;;19.40;100628.00;;;;10243659;28;20205;-76
2023/06/19 04:06:00;;;;;;;6.30;5.07;;;;;19.30;100638.00;;;;10245583;28;20233;-75
2023/06/19 04:11:02;;;;;;;7.65;5.88;;;;;19.30;100640.00;;;;10201320;28;20265;-75
2023/06/19 04:16:04;;;;;;;5.97;5.10;;;;;19.30;100644.00;;;;10229598;28;20224;-76
2023/06/19 04:21:07;;;;;;;6.00;4.55;;;;;19.30;100646.00;;;;10241787;28;20600;-76
2023/06/19 04:26:09;;;;;;;10.40;5.10;;;;;19.30;100648.00;;;;10239665;28;20210;-76
2023/06/19 04:31:11;;;;;;;9.05;4.93;;;;;19.40;100641.00;;;;10256733;28;20205;-76
2023/06/19 04:36:14;;;;;;;5.60;4.85;;;;;19.40;100648.00;;;;10235532;28;20245;-76
2023/06/19 04:41:16;;;;;;;6.15;5.00;;;;;19.50;100646.00;;;;10243902;28;20592;-75
2023/06/19 04:46:20;;;;;;;6.82;4.78;;;;;19.50;100655.00;;;;10242578;28;20210;-76
2023/06/19 04:51:22;;;;;;;6.75;5.50;;;;;19.60;100655.00;;;;10224345;28;20225;-76
2023/06/19 04:56:25;;;;;;;6.97;5.30;;;;;19.70;100656.00;;;;10240845;28;20656;-76
2023/06/19 05:01:30;;;;;;;6.57;5.47;;;;;19.90;100657.00;;;;10198115;28;20261;-75
2023/06/19 05:06:32;;;;;;;8.43;5.38;;;;;20.10;100656.00;;;;10241544;28;20240;-76
2023/06/19 05:11:34;;;;;;;8.00;6.07;;;;;20.50;100659.00;;;;10226196;28;21014;-76
2023/06/19 05:16:36;;;;;;;10.55;6.90;;;;;20.60;100663.00;;;;10239471;28;20205;-76
2023/06/19 05:21:38;;;;;;;9.98;7.80;;;;;20.80;100659.00;;;;10249506;28;20297;-76
2023/06/19 05:26:40;;;;;;;8.57;7.65;;;;;20.90;100654.00;;;;10248104;28;20216;-76
2023/06/19 05:31:42;;;;;;;11.98;8.20;;;;;20.80;100669.00;;;;10245314;28;20219;-76
2023/06/19 05:36:46;;;;;;;9.23;7.75;;;;;21.30;100660.00;;;;10218899;28;20270;-76
2023/06/19 05:41:48;;;;;;;10.98;8.35;;;;;21.70;100673.00;;;;10238123;28;20201;-76
2023/06/19 05:46:50;;;;;;;9.80;8.23;;;;;21.80;100685.00;;;;10235550;28;20643;-76
2023/06/19 05:51:53;;;;;;;13.00;10.07;;;;;22.00;100692.00;;;;10247769;28;20221;-76
2023/06/19 05:56:55;;;;;;;12.82;8.15;;;;;21.70;100691.00;;;;10231281;28;20257;-76
2023/06/19 06:01:57;;;;;;;14.20;9.25;;;;;21.50;100707.00;;;;10247679;28;20201;-75
2023/06/19 06:06:59;;;;;;;13.32;10.32;;;;;21.30;100716.00;;;;10249057;28;20209;-75
2023/06/19 06:12:01;;;;;;;13.20;10.88;;;;;21.10;100733.00;;;;10249351;28;20752;-76
2023/06/19 06:17:05;;;;;;;12.05;10.95;;;;;20.90;100741.00;;;;10248598;28;20719;-76
2023/06/19 06:22:07;;;;;;;16.77;11.02;;;;;21.10;100757.00;;;;10242761;28;20215;-76
2023/06/19 06:27:09;;;;;;;12.50;10.32;;;;;21.20;100756.00;;;;10247510;28;20269;-76
2023/06/19 06:32:11;;;;;;;15.73;12.50;;;;;21.40;100763.00;;;;10230210;28;21062;-76
2023/06/19 06:37:16;;;;;;;16.20;12.68;;;;;21.70;100774.00;;;;10242571;28;20209;-75
2023/06/19 06:42:18;;;;;;;16.30;12.15;;;;;22.20;100779.00;;;;10237235;28;20342;-77
2023/06/19 06:47:20;;;;;;;16.60;12.27;;;;;22.20;100789.00;;;;10247083;28;20197;-76
2023/06/19 06:52:23;;;;;;;13.95;10.25;;;;;22.20;100792.00;;;;10231929;28;20313;-76
2023/06/19 06:57:25;;;;;;;13.50;11.93;;;;;22.30;100795.00;;;;10244741;28;20715;-76
2023/06/19 07:02:27;;;;;;;12.63;11.35;;;;;23.10;100784.00;;;;10236049;28;20236;-75
2023/06/19 07:07:29;;;;;;;12.70;11.18;;;;;23.50;100769.00;;;;10245304;28;20644;-77
2023/06/19 07:12:32;;;;;;;15.65;11.27;;;;;23.60;100787.00;;;;10240649;28;20238;-75
2023/06/19 07:17:34;;;;;;;14.05;10.75;;;;;23.60;100796.00;;;;10245086;28;20241;-75
2023/06/19 07:22:36;;;;;;;12.60;10.98;;;;;23.80;100800.00;;;;10243335;28;20627;-75
2023/06/19 07:27:41;;;;;;;15.75;10.35;;;;;24.10;100802.00;;;;10241535;28;20760;-76
2023/06/19 07:32:44;;;;;;;15.68;10.75;;;;;24.90;100787.00;;;;10243605;28;20232;-76
2023/06/19 07:37:46;;;;;;;14.02;10.32;;;;;25.30;100789.00;;;;10227948;28;20439;-76
2023/06/19 07:42:48;;;;;;;11.52;10.32;;;;;25.60;100783.00;;;;10233874;28;20216;-77
2023/06/19 07:47:57;;;;;;;12.63;11.20;;;;;25.80;100788.00;;;;10242150;28;20209;-77
2023/06/19 07:52:59;;;;;;;14.30;10.50;;;;;25.50;100792.00;;;;10222783;28;20248;-76
2023/06/19 07:58:01;;;;;;;13.65;10.38;;;;;25.40;100783.00;;;;10243800;28;20687;-76
2023/06/19 08:03:05;;;;;;;13.48;10.18;;;;;25.80;100775.00;;;;10259658;28;20237;-77
2023/06/19 08:08:07;;;;;;;12.35;10.68;;;;;26.20;100773.00;;;;10219007;28;20206;-77
2023/06/19 08:13:11;;;;;;;11.65;9.60;;;;;27.80;100787.00;;;;10229497;28;20780;-77
2023/06/19 08:18:13;;;;;;;12.10;9.52;;;;;27.20;100805.00;;;;10244574;28;20220;-76
2023/06/19 08:23:15;;;;;;;11.38;8.57;;;;;27.90;100795.00;;;;10242766;28;20200;-76
2023/06/19 08:28:17;;;;;;;9.52;8.52;;;;;28.60;100797.00;;;;10245162;28;20323;-76
2023/06/19 08:33:19;;;;;;;11.27;7.78;;;;;28.30;100807.00;;;;10239852;28;20781;-77
2023/06/19 08:38:21;;;;;;;14.68;8.98;;;;;28.30;100807.00;;;;10240127;28;20229;-76
2023/06/19 08:43:23;;;;;;;11.77;7.68;;;;;28.90;100820.00;;;;10231159;28;20658;-76
2023/06/19 08:48:27;;;;;;;9.32;8.32;;;;;28.30;100813.00;;;;10249456;28;20198;-77
2023/06/19 08:53:29;;;;;;;8.13;6.53;;;;;29.00;100809.00;;;;10248432;28;20264;-76
2023/06/19 08:58:32;;;;;;;7.68;6.57;;;;;30.30;100798.00;;;;10255527;28;20201;-77
2023/06/19 09:03:34;;;;;;;9.52;7.18;;;;;31.30;100810.00;;;;10256418;28;20284;-77
2023/06/19 09:08:37;;;;;;;8.48;7.60;;;;;31.20;100823.00;;;;10245961;28;20669;-77
2023/06/19 09:13:39;;;;;;;10.60;8.15;;;;;30.70;100820.00;;;;10253797;28;20319;-76
2023/06/19 09:18:44;;;;;;;7.50;6.65;;;;;30.10;100819.00;;;;10246113;28;20233;-78
2023/06/19 09:23:51;;;;;;;9.13;6.93;;;;;30.10;100821.00;;;;10246027;28;20206;-76
2023/06/19 09:29:11;;;;;;;10.43;6.40;;;;;30.80;100825.00;;;;10241922;28;20211;-77
2023/06/19 09:34:17;;;;;;;11.73;7.45;;;;;31.20;100831.00;;;;10246983;28;20223;-76
2023/06/19 09:39:21;;;;;;;6.50;5.43;;;;;31.20;100824.00;;;;10247640;28;20728;-76
2023/06/19 09:44:24;;;;;;;12.10;7.90;;;;;31.70;100811.00;;;;10247554;28;20559;-76
2023/06/19 09:49:31;;;;;;;10.60;6.32;;;;;32.00;100835.00;;;;10247196;28;20260;-77
2023/06/19 09:54:35;;;;;;;10.25;6.40;;;;;31.20;100825.00;;;;10254108;28;20272;-76
2023/06/19 09:59:40;;;;;;;8.57;6.70;;;;;30.00;100828.00;;;;10232763;28;20217;-77
2023/06/19 10:04:49;;;;;;;8.52;6.50;;;;;30.50;100836.00;;;;10229629;28;20209;-77
2023/06/19 10:09:56;;;;;;;9.00;6.78;;;;;30.10;100826.00;;;;10238851;28;20206;-76
2023/06/19 10:15:18;;;;;;;11.45;8.07;;;;;30.40;100822.00;;;;10234799;28;20575;-77
2023/06/19 10:20:33;;;;;;;9.85;6.68;;;;;31.10;100829.00;;;;10237949;28;20234;-76
2023/06/19 10:25:38;;;;;;;8.63;6.82;;;;;31.80;100822.00;;;;10232431;28;20213;-76
2023/06/19 10:30:40;;;;;;;10.23;6.57;;;;;32.80;100829.00;;;;10242650;28;20202;-76
2023/06/19 10:35:42;;;;;;;11.73;7.43;;;;;33.00;100823.00;;;;10235371;28;20279;-76
2023/06/19 10:40:45;;;;;;;7.22;5.72;;;;;33.40;100815.00;;;;10227715;28;20262;-74
2023/06/19 10:45:47;;;;;;;7.18;5.88;;;;;33.60;100808.00;;;;10250858;28;20205;-76
2023/06/19 10:50:50;;;;;;;10.75;6.15;;;;;33.60;100814.00;;;;10251709;28;20679;-74
2023/06/19 10:55:59;;;;;;;10.02;6.38;;;;;33.70;100807.00;;;;10248792;28;20264;-76
2023/06/19 11:01:01;;;;;;;8.55;5.75;;;;;34.20;100804.00;;;;10243486;28;20217;-75
2023/06/19 11:06:03;;;;;;;7.38;6.35;;;;;34.60;100808.00;;;;10253212;28;20611;-75
2023/06/19 11:11:05;;;;;;;8.27;6.20;;;;;34.60;100808.00;;;;10230390;28;20257;-76
2023/06/19 11:16:07;;;;;;;8.48;6.22;;;;;34.70;100809.00;;;;10246152;28;20228;-75
2023/06/19 11:21:09;;;;;;;8.73;5.95;;;;;35.20;100802.00;;;;10249904;28;20205;-75
2023/06/19 11:26:12;;;;;;;8.73;6.10;;;;;33.80;100807.00;;;;10239342;28;20201;-75
2023/06/19 11:31:15;;;;;;;8.88;6.25;;;;;34.40;100798.00;;;;10233893;28;20585;-75
2023/06/19 11:36:17;;;;;;;8.98;6.00;;;;;35.00;100800.00;;;;10228616;28;20608;-75
2023/06/19 11:41:27;;;;;;;6.90;5.78;;;;;34.20;100797.00;;;;10237132;28;20568;-77
2023/06/19 11:46:31;;;;;;;7.00;5.70;;;;;33.90;100799.00;;;;10229606;28;20261;-75
2023/06/19 11:51:33;;;;;;;9.85;7.07;;;;;34.70;100799.00;;;;10238912;28;20686;-75
2023/06/19 11:56:36;;;;;;;9.00;6.28;;;;;34.10;100784.00;;;;10224680;28;20554;-76
2023/06/19 12:01:38;;;;;;;7.10;5.68;;;;;35.40;100787.00;;;;10237866;28;20292;-74
2023/06/19 12:06:41;;;;;;;8.98;6.53;;;;;36.50;100782.00;;;;10210775;28;20316;-76
2023/06/19 12:11:43;;;;;;;8.30;7.40;;;;;37.10;100769.00;;;;10230906;28;20206;-74
2023/06/19 12:16:46;;;;;;;7.47;6.50;;;;;37.30;100777.00;;;;10236401;28;20209;-75
2023/06/19 12:21:48;;;;;;;8.40;7.13;;;;;36.80;100779.00;;;;10231795;28;20316;-75
2023/06/19 12:26:50;;;;;;;8.40;6.40;;;;;35.50;100774.00;;;;10238179;28;20537;-76
2023/06/19 12:31:58;;;;;;;7.65;6.65;;;;;35.40;100765.00;;;;10224429;28;20221;-75
2023/06/19 12:37:00;;;;;;;7.97;6.03;;;;;35.90;100771.00;;;;10238903;28;20209;-76
2023/06/19 12:42:02;;;;;;;9.43;5.60;;;;;36.30;100772.00;;;;10228950;28;20205;-75
2023/06/19 12:47:05;;;;;;;7.18;5.90;;;;;36.50;100769.00;;;;10227874;28;20256;-76
2023/06/19 12:52:07;;;;;;;6.78;5.47;;;;;35.90;100760.00;;;;10236169;28;20208;-75
2023/06/19 12:57:09;;;;;;;6.55;5.28;;;;;36.10;100754.00;;;;10236151;28;20572;-76
2023/06/19 13:02:11;;;;;;;7.57;5.60;;;;;36.10;100751.00;;;;10235988;28;20960;-75
2023/06/19 13:07:16;;;;;;;9.52;5.72;;;;;36.00;100743.00;;;;10236512;28;20709;-75
2023/06/19 13:12:18;;;;;;;6.00;4.72;;;;;35.70;100734.00;;;;10227895;28;20202;-77
2023/06/19 13:17:20;;;;;;;6.05;4.53;;;;;35.90;100733.00;;;;10237104;28;20245;-76
2023/06/19 13:22:22;;;;;;;7.55;5.57;;;;;36.10;100745.00;;;;10234973;28;20193;-75
2023/06/19 13:27:27;;;;;;;5.72;5.18;;;;;35.90;100729.00;;;;10225694;28;20213;-76
2023/06/19 13:32:29;;;;;;;6.32;5.28;;;;;35.50;100725.00;;;;10241037;28;20209;-76
2023/06/19 13:37:33;;;;;;;6.57;5.00;;;;;35.60;100713.00;;;;10243924;28;20216;-77
2023/06/19 13:42:36;;;;;;;5.47;4.85;;;;;36.00;100720.00;;;;10235571;28;20790;-75
2023/06/19 13:47:38;;;;;;;6.38;4.50;;;;;35.60;100722.00;;;;10242219;28;20284;-76
2023/06/19 13:52:41;;;;;;;9.18;5.18;;;;;35.70;100722.00;;;;10231855;28;20699;-75
2023/06/19 13:57:43;;;;;;;6.60;4.50;;;;;35.60;100733.00;;;;10240210;28;20210;-75
2023/06/19 14:02:45;;;;;;;5.10;4.30;;;;;35.80;100714.00;;;;10241029;28;20212;-76
2023/06/19 14:07:47;;;;;;;5.40;4.50;;;;;35.50;100714.00;;;;10249324;28;20244;-75
2023/06/19 14:12:49;;;;;;;6.90;4.70;;;;;35.10;100705.00;;;;10241012;28;20805;-75
2023/06/19 14:17:52;;;;;;;5.45;4.95;;;;;34.90;100693.00;;;;10228788;28;20270;-76
2023/06/19 14:22:54;;;;;;;7.25;4.78;;;;;35.10;100679.00;;;;10231704;28;20202;-74
2023/06/19 14:27:56;;;;;;;4.90;4.22;;;;;35.00;100684.00;;;;10230551;28;20218;-75
2023/06/19 14:32:58;;;;;;;6.30;4.72;;;;;35.30;100686.00;;;;10223456;28;20312;-75
2023/06/19 14:38:00;;;;;;;4.68;4.22;;;;;35.00;100693.00;;;;10237502;28;20209;-75
2023/06/19 14:43:02;;;;;;;11.43;4.80;;;;;33.80;100693.00;;;;10236167;28;20262;-75
2023/06/19 14:48:05;;;;;;;7.75;4.60;;;;;33.00;100689.00;;;;10232340;28;20372;-77
2023/06/19 14:53:07;;;;;;;4.47;4.07;;;;;33.70;100687.00;;;;10232883;28;20331;-75
2023/06/19 14:58:09;;;;;;;5.13;4.57;;;;;33.60;100682.00;;;;10237800;28;20212;-75
2023/06/19 15:03:11;;;;;;;7.70;4.25;;;;;33.20;100685.00;;;;10245609;28;20229;-75
2023/06/19 15:08:14;;;;;;;4.50;4.10;;;;;32.80;100684.00;;;;10236559;28;20688;-74
2023/06/19 15:13:16;;;;;;;4.22;3.58;;;;;33.40;100667.00;;;;10228903;28;20210;-74
2023/06/19 15:18:18;;;;;;;4.85;3.97;;;;;32.50;100669.00;;;;10228042;28;20242;-75
2023/06/19 15:23:21;;;;;;;6.75;3.55;;;;;31.90;100671.00;;;;10246461;28;20225;-74
2023/06/19 15:28:23;;;;;;;6.25;4.22;;;;;33.40;100653.00;;;;10247452;28;20289;-75
2023/06/19 15:33:25;;;;;;;5.07;3.97;;;;;34.10;100658.00;;;;10235254;28;20209;-75
2023/06/19 15:38:27;;;;;;;4.63;4.13;;;;;33.70;100654.00;;;;10240952;28;20241;-75
2023/06/19 15:43:30;;;;;;;4.15;3.75;;;;;33.30;100654.00;;;;10232427;28;20249;-75
2023/06/19 15:48:32;;;;;;;5.28;3.28;;;;;33.10;100655.00;;;;10244391;28;20248;-75
2023/06/19 15:53:39;;;;;;;4.78;4.07;;;;;32.50;100648.00;;;;10229646;28;20296;-75
2023/06/19 15:58:41;;;;;;;4.05;3.60;;;;;32.10;100646.00;;;;10230046;28;20198;-75
2023/06/19 16:03:43;;;;;;;4.43;3.05;;;;;31.70;100644.00;;;;10231106;28;20309;-76
2023/06/19 16:08:45;;;;;;;7.28;4.45;;;;;31.30;100655.00;;;;10240787;28;20217;-76
2023/06/19 16:13:47;;;;;;;5.32;3.70;;;;;30.90;100656.00;;;;10241916;28;20209;-77
2023/06/19 16:18:49;;;;;;;3.97;3.55;;;;;30.70;100650.00;;;;10237528;28;20529;-75
2023/06/19 16:23:51;;;;;;;5.20;3.70;;;;;30.50;100646.00;;;;10243019;28;20634;-75
2023/06/19 16:28:53;;;;;;;4.88;3.70;;;;;30.50;100640.00;;;;10241196;28;20215;-75
2023/06/19 16:33:56;;;;;;;5.93;3.80;;;;;30.60;100642.00;;;;10240894;28;20215;-75
2023/06/19 16:38:59;;;;;;;5.93;3.88;;;;;30.50;100639.00;;;;10207899;28;20205;-75
2023/06/19 16:44:01;;;;;;;6.18;3.65;;;;;30.50;100631.00;;;;10241817;28;21073;-75
2023/06/19 16:49:03;;;;;;;6.93;4.43;;;;;30.00;100630.00;;;;10237111;28;20293;-76
2023/06/19 16:54:05;;;;;;;6.93;4.25;;;;;29.50;100621.00;;;;10241619;28;20837;-76
2023/06/19 16:59:09;;;;;;;4.70;4.25;;;;;29.40;100613.00;;;;10231567;28;20205;-75
2023/06/19 17:04:12;;;;;;;7.22;3.85;;;;;29.10;100612.00;;;;10221440;28;20694;-75
2023/06/19 17:09:14;;;;;;;7.25;4.47;;;;;29.00;100618.00;;;;10234202;28;20261;-75
2023/06/19 17:14:15;;;;;;;7.45;4.13;;;;;28.90;100624.00;;;;10233423;28;20462;-75
2023/06/19 17:19:17;;;;;;;6.00;4.22;;;;;28.90;100627.00;;;;10240479;28;20659;-77
2023/06/19 17:24:20;;;;;;;6.32;4.20;;;;;28.20;100621.00;;;;10228636;28;20229;-78
2023/06/19 17:29:24;;;;;;;6.80;4.47;;;;;28.20;100617.00;;;;10231913;28;20635;-76
2023/06/19 17:34:26;;;;;;;6.00;4.25;;;;;28.20;100622.00;;;;10205081;28;20198;-77
2023/06/19 17:39:29;;;;;;;5.00;4.35;;;;;28.10;100623.00;;;;10239374;28;20198;-75
2023/06/19 17:44:31;;;;;;;6.55;4.30;;;;;28.30;100621.00;;;;10244830;28;20210;-76
2023/06/19 17:49:33;;;;;;;5.18;4.10;;;;;28.30;100623.00;;;;10241447;28;20210;-76
2023/06/19 17:54:35;;;;;;;7.30;4.75;;;;;28.30;100608.00;;;;10227075;28;20233;-76
2023/06/19 17:59:37;;;;;;;6.30;4.15;;;;;28.30;100613.00;;;;10243327;28;20237;-75
2023/06/19 18:04:39;;;;;;;4.80;3.67;;;;;28.40;100617.00;;;;10228032;28;20235;-76
2023/06/19 18:09:46;;;;;;;6.07;4.22;;;;;28.30;100616.00;;;;10242659;28;20221;-77
2023/06/19 18:14:48;;;;;;;5.88;4.00;;;;;27.90;100622.00;;;;10239937;28;20202;-76
2023/06/19 18:19:50;;;;;;;5.22;4.15;;;;;27.90;100614.00;;;;10242592;28;20695;-76
2023/06/19 18:24:52;;;;;;;6.63;4.53;;;;;28.00;100602.00;;;;10239487;28;20720;-76
2023/06/19 18:29:55;;;;;;;7.50;4.25;;;;;28.10;100603.00;;;;10239911;28;20608;-75
2023/06/19 18:34:58;;;;;;;9.63;4.20;;;;;27.90;100602.00;;;;10240634;28;20276;-77
2023/06/19 18:39:59;;;;;;;6.10;4.03;;;;;27.60;100606.00;;;;10239089;28;20197;-75
2023/06/19 18:45:02;;;;;;;6.32;4.20;;;;;27.30;100612.00;;;;10224154;28;20305;-76
2023/06/19 18:50:05;;;;;;;9.38;4.72;;;;;27.00;100612.00;;;;10238801;28;20212;-76
2023/06/19 18:55:07;;;;;;;5.40;4.13;;;;;26.70;100605.00;;;;10222734;28;20389;-76
2023/06/19 19:00:10;;;;;;;5.47;4.00;;;;;26.50;100606.00;;;;10240162;28;20300;-77
2023/06/19 19:05:12;;;;;;;10.50;4.53;;;;;26.50;100608.00;;;;10240580;28;20600;-75
2023/06/19 19:10:15;;;;;;;6.53;4.63;;;;;26.50;100602.00;;;;10221112;28;20280;-76
2023/06/19 19:15:17;;;;;;;5.22;4.00;;;;;26.30;100603.00;;;;10205366;28;20671;-75
2023/06/19 19:20:19;;;;;;;4.70;4.28;;;;;26.00;100608.00;;;;10215629;28;20215;-76
2023/06/19 19:25:21;;;;;;;6.88;4.20;;;;;25.70;100614.00;;;;10229115;28;20352;-76
2023/06/19 19:30:24;;;;;;;8.95;4.70;;;;;25.50;100614.00;;;;10238675;28;20620;-75
2023/06/19 19:35:26;;;;;;;6.25;4.05;;;;;25.30;100622.00;;;;10239852;28;20699;-75
2023/06/19 19:40:28;;;;;;;6.25;4.43;;;;;25.20;100612.00;;;;10239450;28;20236;-77
2023/06/19 19:45:30;;;;;;;6.15;4.25;;;;;25.10;100619.00;;;;10210498;28;20313;-76
2023/06/19 19:50:33;;;;;;;6.18;4.43;;;;;25.00;100615.00;;;;10237767;28;20197;-75
2023/06/19 19:55:35;;;;;;;5.65;4.20;;;;;24.80;100633.00;;;;10236024;28;20606;-75
2023/06/19 20:00:37;;;;;;;5.07;4.32;;;;;24.70;100630.00;;;;10218267;28;20202;-75
2023/06/19 20:05:39;;;;;;;7.78;4.07;;;;;24.60;100636.00;;;;10227081;28;20229;-75
2023/06/19 20:10:43;;;;;;;6.70;4.20;;;;;24.60;100644.00;;;;10237637;28;20206;-76
2023/06/19 20:15:46;;;;;;;8.00;4.43;;;;;24.50;100648.00;;;;10238165;28;20198;-75
2023/06/19 20:20:48;;;;;;;6.43;4.55;;;;;24.30;100654.00;;;;10237600;28;20240;-76
2023/06/19 20:25:51;;;;;;;7.72;4.72;;;;;24.20;100659.00;;;;10237137;28;20228;-74
2023/06/19 20:30:54;;;;;;;5.88;4.93;;;;;24.10;100672.00;;;;10223337;28;20660;-75
2023/06/19 20:36:00;;;;;;;6.70;4.65;;;;;24.00;100679.00;;;;10223573;28;20205;-75
2023/06/19 20:41:03;;;;;;;6.82;4.85;;;;;23.90;100685.00;;;;10232220;28;20238;-75
2023/06/19 20:46:07;;;;;;;9.05;5.35;;;;;23.90;100678.00;;;;10203304;28;20217;-76
2023/06/19 20:51:10;;;;;;;7.80;5.15;;;;;23.90;100679.00;;;;10236577;28;20304;-76
2023/06/19 20:56:12;;;;;;;7.25;5.75;;;;;23.80;100687.00;;;;10237697;28;20550;-76
2023/06/19 21:01:14;;;;;;;6.05;5.45;;;;;23.70;100687.00;;;;10235981;28;20198;-76
2023/06/19 21:06:19;;;;;;;7.03;5.43;;;;;23.60;100684.00;;;;10206759;28;20214;-76
2023/06/19 21:11:22;;;;;;;6.80;5.00;;;;;23.50;100685.00;;;;10238650;28;20599;-77
2023/06/19 21:16:24;;;;;;;10.88;5.22;;;;;23.40;100686.00;;;;10225498;28;20259;-75
2023/06/19 21:21:26;;;;;;;8.35;5.95;;;;;23.30;100687.00;;;;10237167;28;20193;-76
2023/06/19 21:26:28;;;;;;;9.00;5.50;;;;;23.20;100683.00;;;;10232460;28;20240;-76
2023/06/19 21:31:30;;;;;;;6.80;5.35;;;;;23.20;100682.00;;;;10237668;28;20278;-76
2023/06/19 21:36:32;;;;;;;8.25;6.03;;;;;23.20;100678.00;;;;10221509;28;20209;-76
2023/06/19 21:41:36;;;;;;;12.75;5.53;;;;;23.20;100677.00;;;;10237255;28;20305;-76
2023/06/19 21:46:38;;;;;;;7.97;5.63;;;;;23.20;100671.00;;;;10237739;28;20225;-75
2023/06/19 21:51:41;;;;;;;10.75;5.63;;;;;23.20;100664.00;;;;10235853;28;20683;-77
2023/06/19 21:56:43;;;;;;;7.68;5.22;;;;;23.10;100663.00;;;;10226782;28;20197;-77
2023/06/19 22:01:45;;;;;;;8.95;5.20;;;;;23.10;100654.00;;;;10215166;28;20540;-75
2023/06/19 22:06:47;;;;;;;7.32;5.50;;;;;23.00;100651.00;;;;10241694;28;20252;-76
2023/06/19 22:11:49;;;;;;;8.55;6.13;;;;;22.90;100652.00;;;;10243365;28;20197;-76
2023/06/19 22:16:51;;;;;;;13.73;5.93;;;;;22.80;100644.00;;;;10233895;28;20280;-76
2023/06/19 22:21:53;;;;;;;9.25;5.07;;;;;22.70;100642.00;;;;10239792;28;20571;-76
2023/06/19 22:26:55;;;;;;;12.27;5.50;;;;;22.60;100639.00;;;;10233424;28;20221;-75
2023/06/19 22:31:58;;;;;;;6.13;5.53;;;;;22.40;100636.00;;;;10243524;28;20523;-76
2023/06/19 22:37:00;;;;;;;5.75;4.45;;;;;22.40;100636.00;;;;10242513;28;20222;-76
2023/06/19 22:42:02;;;;;;;6.72;4.43;;;;;22.40;100635.00;;;;10243017;28;20632;-77
2023/06/19 22:47:04;;;;;;;6.78;5.35;;;;;22.40;100635.00;;;;10228617;28;20246;-76
2023/06/19 22:52:08;;;;;;;7.03;4.85;;;;;22.40;100626.00;;;;10238866;28;20522;-77
2023/06/19 22:57:10;;;;;;;7.35;5.40;;;;;22.30;100635.00;;;;10242709;28;20479;-76
2023/06/19 23:02:12;;;;;;;7.53;5.00;;;;;22.30;100639.00;;;;10241528;28;20229;-77
2023/06/19 23:07:14;;;;;;;7.18;5.15;;;;;22.30;100632.00;;;;10241206;28;20272;-77
2023/06/19 23:12:20;;;;;;;5.65;4.97;;;;;22.30;100630.00;;;;10232475;28;20642;-78
2023/06/19 23:17:22;;;;;;;6.63;5.38;;;;;22.30;100628.00;;;;10227321;28;20245;-78
2023/06/19 23:22:25;;;;;;;5.53;4.53;;;;;22.20;100629.00;;;;10242559;28;20201;-77
2023/06/19 23:27:27;;;;;;;6.00;4.97;;;;;22.20;100627.00;;;;10242037;28;20221;-77
2023/06/19 23:32:29;;;;;;;6.90;5.13;;;;;22.20;100618.00;;;;10242162;28;20205;-79
2023/06/19 23:37:31;;;;;;;9.57;5.57;;;;;22.10;100609.00;;;;10240821;28;20472;-78
2023/06/19 23:42:33;;;;;;;6.85;4.93;;;;;22.00;100606.00;;;;10242085;28;20204;-77
2023/06/19 23:47:35;;;;;;;6.68;5.47;;;;;22.00;100609.00;;;;10239560;28;20232;-77
2023/06/19 23:52:38;;;;;;;8.80;6.28;;;;;21.90;100611.00;;;;10210872;28;20222;-75
2023/06/19 23:57:45;;;;;;;7.15;5.85;;;;;21.90;100608.00;;;;10215533;28;20217;-76
